Time;durP1;ratioP1;P1;durP2;ratioP2;P2;SDS_P1;SDS_P2;PMS_P1;PMS_P2;Temp;Humidity;BMP_temperature;BMP_pressure;BME280_temperature;BME280_humidity;BME280_pressure;Samples;Min_cycle;Max_cycle;Signal;HPM_P1;HPM_P2
2021/09/17 00:00:42;;;;;;;4.97;3.60;;;;;;;17.17;78.88;101054.93;1771012;80;21447;-60
2021/09/17 00:03:10;;;;;;;11.18;3.92;;;;;;;17.15;79.15;101048.73;1767592;79;21039;-58
2021/09/17 00:05:39;;;;;;;5.75;3.10;;;;;;;17.15;79.23;101048.27;1761008;80;21000;-59
2021/09/17 00:08:05;;;;;;;5.12;3.25;;;;;;;17.16;79.36;101048.66;1760681;80;21082;-59
2021/09/17 00:10:34;;;;;;;6.20;3.33;;;;;;;17.18;79.46;101043.13;1760903;80;21444;-55
2021/09/17 00:13:01;;;;;;;6.83;3.72;;;;;;;17.21;79.44;101038.88;1774212;80;21124;-55
2021/09/17 00:15:33;;;;;;;8.30;3.60;;;;;;;17.24;79.36;101033.78;1770454;79;20970;-56
2021/09/17 00:20:30;;;;;;;6.72;3.52;;;;;;;17.23;79.42;101029.33;1770323;81;21601;-58
2021/09/17 00:22:59;;;;;;;8.65;3.33;;;;;;;17.22;79.50;101031.64;1770137;81;20950;-58
2021/09/17 00:25:26;;;;;;;9.08;3.60;;;;;;;17.20;79.73;101029.51;1779497;80;21876;-58
2021/09/17 00:27:53;;;;;;;8.93;4.08;;;;;;;17.21;79.97;101031.25;1774206;80;21049;-55
2021/09/17 00:32:58;;;;;;;8.33;3.33;;;;;;;17.26;80.08;101026.43;1770312;80;21357;-58
2021/09/17 00:35:25;;;;;;;15.30;3.45;;;;;;;17.27;80.19;101026.82;1770841;81;21089;-56
2021/09/17 00:37:52;;;;;;;5.72;3.20;;;;;;;17.27;80.20;101018.22;1770431;79;21125;-54
2021/09/17 00:40:21;;;;;;;8.98;3.30;;;;;;;17.27;80.30;101014.62;1770501;79;21062;-55
2021/09/17 00:48:06;;;;;;;5.60;3.10;;;;;;;17.30;80.68;101012.62;1781616;80;20962;-59
2021/09/17 00:50:36;;;;;;;7.05;3.40;;;;;;;17.30;80.82;101011.73;1780169;79;21038;-59
2021/09/17 00:55:53;;;;;;;7.75;3.60;;;;;;;17.29;81.16;101009.98;1755845;80;21571;-60
2021/09/17 01:04:08;;;;;;;6.62;3.20;;;;;;;17.35;81.36;101001.48;1776819;79;21582;-58
2021/09/17 01:11:46;;;;;;;8.30;3.15;;;;;;;17.32;81.74;100985.41;1768777;80;21091;-58
2021/09/17 01:14:13;;;;;;;8.53;3.12;;;;;;;17.31;81.97;100989.09;1772495;79;21037;-58
2021/09/17 01:16:42;;;;;;;5.22;3.25;;;;;;;17.32;82.15;100977.28;1783035;78;21028;-58
2021/09/17 01:19:10;;;;;;;8.43;3.12;;;;;;;17.33;82.32;100977.67;1749703;81;21044;-58
2021/09/17 01:21:39;;;;;;;8.20;2.98;;;;;;;17.34;82.46;100978.05;1748072;80;21156;-61
2021/09/17 01:24:14;;;;;;;7.55;3.40;;;;;;;17.32;82.69;100971.86;1751170;81;21011;-55
2021/09/17 01:26:42;;;;;;;6.35;3.05;;;;;;;17.31;82.90;100966.94;1758593;80;21017;-54
2021/09/17 01:29:12;;;;;;;8.93;2.90;;;;;;;17.31;83.26;100960.63;1761147;81;21140;-60
2021/09/17 01:31:40;;;;;;;9.83;3.27;;;;;;;17.33;83.53;100960.94;1755290;80;21072;-59
2021/09/17 01:34:32;;;;;;;7.03;3.10;;;;;;;17.35;83.68;100963.55;1755414;81;21662;-55
2021/09/17 01:40:04;;;;;;;7.78;2.67;;;;;;;17.37;84.48;100961.64;1747888;81;21065;-56
2021/09/17 01:47:59;;;;;;;4.85;3.05;;;;;;;17.45;84.94;100956.62;1757188;80;21077;-58
2021/09/17 01:53:02;;;;;;;;;;;;;;;17.48;85.60;100946.08;1771264;81;21065;-56
2021/09/17 01:58:01;;;;;;;3.83;2.33;;;;;;;17.53;85.83;100948.48;1758396;81;21418;-54
2021/09/17 02:00:28;;;;;;;5.17;2.45;;;;;;;17.56;86.01;100947.83;1745669;81;21092;-58
2021/09/17 02:02:57;;;;;;;3.60;2.70;;;;;;;17.59;86.11;100944.06;1746373;80;21179;-58
2021/09/17 02:05:25;;;;;;;7.47;2.92;;;;;;;17.59;86.05;100949.48;1746754;81;20985;-54
2021/09/17 02:07:52;;;;;;;5.90;3.22;;;;;;;17.59;86.30;100937.29;1752362;80;21897;-54
2021/09/17 02:10:20;;;;;;;7.35;2.75;;;;;;;17.63;86.67;100941.55;1736394;81;21085;-56
2021/09/17 02:12:47;;;;;;;6.00;3.47;;;;;;;17.68;86.75;100936.70;1760383;78;21032;-59
2021/09/17 02:15:14;;;;;;;6.08;2.62;;;;;;;17.73;87.04;100937.78;1782415;80;21064;-59
2021/09/17 02:17:43;;;;;;;5.78;2.80;;;;;;;17.76;87.23;100935.73;1777835;80;21041;-54
2021/09/17 02:20:12;;;;;;;7.15;2.90;;;;;;;17.80;87.65;100936.92;1752558;80;21127;-58
2021/09/17 02:22:41;;;;;;;4.90;2.67;;;;;;;17.84;88.05;100931.69;1753401;80;21024;-58
2021/09/17 02:25:09;;;;;;;7.30;2.80;;;;;;;17.88;88.62;100924.59;1762710;79;21079;-58
2021/09/17 02:27:38;;;;;;;4.37;2.75;;;;;;;17.94;89.15;100928.77;1773896;80;20983;-58
2021/09/17 02:30:07;;;;;;;5.70;2.40;;;;;;;17.98;89.63;100926.74;1763771;80;21059;-58
2021/09/17 02:32:34;;;;;;;5.83;2.60;;;;;;;18.02;90.15;100921.06;1760443;81;21534;-58
2021/09/17 02:37:42;;;;;;;6.20;2.85;;;;;;;18.14;91.06;100927.55;1768214;80;21499;-58
2021/09/17 02:40:11;;;;;;;4.75;2.70;;;;;;;18.22;91.61;100919.39;1787301;78;21050;-58
2021/09/17 02:42:38;;;;;;;7.80;2.90;;;;;;;18.28;91.94;100920.34;1793570;78;20971;-58
2021/09/17 02:45:07;;;;;;;7.90;3.22;;;;;;;18.32;92.27;100921.41;1792228;79;23207;-58
2021/09/17 02:47:35;;;;;;;5.78;2.95;;;;;;;18.40;92.86;100915.48;1770805;78;21505;-58
2021/09/17 02:50:04;;;;;;;9.03;3.58;;;;;;;18.49;93.13;100923.51;1788263;80;21262;-57
2021/09/17 02:55:30;;;;;;;6.10;3.17;;;;;;;18.58;93.55;100908.45;1789597;80;21572;-58
2021/09/17 02:58:10;;;;;;;6.28;3.37;;;;;;;18.63;93.36;100915.80;1792889;78;21106;-59
2021/09/17 03:00:48;;;;;;;4.85;2.70;;;;;;;18.64;93.26;100913.94;1792669;80;21106;-59
2021/09/17 03:08:33;;;;;;;4.15;2.77;;;;;;;18.63;93.07;100917.63;1776708;80;21721;-58
2021/09/17 03:11:01;;;;;;;6.17;3.02;;;;;;;18.60;93.15;100914.66;1785695;79;21905;-54
2021/09/17 03:16:06;;;;;;;;;;;;;;;18.54;93.55;100906.89;1791234;79;21400;-54
2021/09/17 03:18:35;;;;;;;8.75;3.02;;;;;;;18.50;93.83;100907.60;1789175;79;20173;-58
2021/09/17 03:21:05;;;;;;;11.43;2.72;;;;;;;18.47;94.12;100906.45;1771414;79;21009;-58
2021/09/17 03:26:14;;;;;;;6.47;3.00;;;;;;;18.46;94.42;100902.00;1763716;81;20993;-60
2021/09/17 03:28:41;;;;;;;6.72;3.02;;;;;;;18.47;94.53;100906.45;1749589;81;21094;-59
2021/09/17 03:34:01;;;;;;;6.65;2.92;;;;;;;18.49;94.30;100904.51;1754190;81;21196;-58
2021/09/17 03:36:29;;;;;;;3.40;2.70;;;;;;;18.53;94.10;100909.22;1760971;81;21487;-58
2021/09/17 03:38:56;;;;;;;9.00;2.90;;;;;;;18.56;93.95;100898.16;1758154;79;21058;-58
2021/09/17 03:41:23;;;;;;;7.60;2.72;;;;;;;18.60;93.73;100904.65;1754213;81;21122;-58
2021/09/17 03:46:41;;;;;;;5.40;2.40;;;;;;;18.68;93.17;100903.25;1751561;81;21065;-60
2021/09/17 03:51:57;;;;;;;6.05;2.75;;;;;;;18.80;92.19;100906.52;1756468;80;21133;-59
2021/09/17 03:54:27;;;;;;;8.58;2.80;;;;;;;18.86;91.59;100902.52;1752670;81;21491;-59
2021/09/17 03:56:59;;;;;;;7.97;2.80;;;;;;;18.93;90.97;100902.98;1755346;81;21534;-58
2021/09/17 03:59:31;;;;;;;12.50;2.83;;;;;;;18.99;90.21;100899.88;1752224;80;21035;-58
2021/09/17 04:07:08;;;;;;;7.53;2.83;;;;;;;19.21;88.34;100894.32;1762511;81;21508;-59
2021/09/17 04:09:36;;;;;;;5.05;2.83;;;;;;;19.28;87.69;100892.43;1749870;81;21294;-59
2021/09/17 04:12:05;;;;;;;12.58;2.90;;;;;;;19.36;86.93;100891.02;1750681;81;21078;-60
2021/09/17 04:17:14;;;;;;;9.53;2.70;;;;;;;19.50;84.65;100899.08;1761668;80;21632;-60
2021/09/17 04:19:42;;;;;;;8.28;3.10;;;;;;;19.57;83.50;100889.50;1755448;79;21092;-59
2021/09/17 04:22:11;;;;;;;6.92;2.58;;;;;;;19.65;82.16;100894.39;1776142;80;21037;-58
2021/09/17 04:24:39;;;;;;;8.95;3.10;;;;;;;19.73;81.26;100895.22;1762190;79;21060;-58
2021/09/17 04:27:06;;;;;;;7.87;3.30;;;;;;;19.81;80.20;100896.03;1762991;80;21078;-60
2021/09/17 04:29:33;;;;;;;7.65;2.60;;;;;;;19.86;78.37;100891.12;1776323;80;21435;-59
2021/09/17 04:32:00;;;;;;;6.10;2.62;;;;;;;19.88;76.38;100890.00;1746610;80;21073;-59
2021/09/17 04:34:29;;;;;;;7.00;2.80;;;;;;;19.92;75.22;100890.70;1776395;80;21030;-59
2021/09/17 04:36:56;;;;;;;9.95;2.92;;;;;;;19.97;74.30;100884.93;1776061;79;22012;-59
2021/09/17 04:39:42;;;;;;;7.47;2.52;;;;;;;20.04;73.49;100885.73;1774945;79;21131;-59
2021/09/17 04:44:59;;;;;;;5.80;2.70;;;;;;;20.25;72.19;100881.05;1776034;79;21022;-58
2021/09/17 04:47:26;;;;;;;6.40;2.33;;;;;;;20.39;71.55;100873.70;1776352;79;21104;-58
2021/09/17 04:50:08;;;;;;;6.45;2.60;;;;;;;20.46;70.31;100871.77;1776118;80;20957;-57
2021/09/17 04:52:35;;;;;;;6.40;2.52;;;;;;;20.54;68.34;100872.55;1756734;80;21543;-58
2021/09/17 04:55:09;;;;;;;7.97;2.47;;;;;;;20.64;66.56;100874.56;1773407;80;21170;-59
2021/09/17 05:00:40;;;;;;;5.37;2.58;;;;;;;20.94;64.47;100867.81;1754912;80;21048;-58
2021/09/17 05:03:08;;;;;;;10.23;2.92;;;;;;;21.23;62.78;100872.84;1776240;79;21128;-58
2021/09/17 05:05:47;;;;;;;6.90;2.35;;;;;;;21.41;61.06;100867.30;1767522;80;21529;-58
2021/09/17 05:08:13;;;;;;;8.30;2.77;;;;;;;21.54;60.25;100870.40;1775521;80;21041;-58
2021/09/17 05:10:59;;;;;;;9.35;3.17;;;;;;;21.59;59.21;100879.11;1775704;80;21534;-57
2021/09/17 05:13:25;;;;;;;;;;;;;;;21.67;59.17;100875.80;1775332;79;21043;-58
2021/09/17 05:15:53;;;;;;;9.65;3.10;;;;;;;21.98;58.02;100872.80;1776196;79;20184;-59
2021/09/17 05:18:23;;;;;;;7.15;3.05;;;;;;;22.25;56.59;100872.02;1765318;80;22513;-59
2021/09/17 05:20:50;;;;;;;7.55;2.40;;;;;;;22.54;54.96;100872.36;1764325;80;21120;-59
2021/09/17 05:23:33;;;;;;;6.67;2.33;;;;;;;22.80;53.53;100874.73;1762975;80;21023;-59
2021/09/17 05:28:48;;;;;;;9.35;2.50;;;;;;;23.00;52.13;100879.00;1765240;80;21128;-59
2021/09/17 05:31:16;;;;;;;4.33;2.40;;;;;;;23.01;51.59;100879.37;1779135;79;21183;-58
2021/09/17 05:36:16;;;;;;;4.92;2.33;;;;;;;23.10;50.86;100881.33;1779344;79;21549;-59
2021/09/17 05:38:43;;;;;;;7.00;2.67;;;;;;;23.16;50.42;100882.16;1783989;79;22341;-59
2021/09/17 05:43:49;;;;;;;7.70;2.87;;;;;;;23.32;50.24;100883.56;1766941;79;21011;-61
2021/09/17 05:46:18;;;;;;;14.40;2.40;;;;;;;23.36;50.25;100887.80;1760479;80;21504;-58
2021/09/17 05:48:55;;;;;;;8.68;2.55;;;;;;;23.34;50.08;100888.43;1765027;80;21477;-58
2021/09/17 05:54:19;;;;;;;7.08;2.62;;;;;;;23.25;49.79;100885.08;1776805;79;21014;-59
2021/09/17 05:56:46;;;;;;;8.38;2.40;;;;;;;23.28;48.86;100884.84;1772311;79;21116;-60
2021/09/17 05:59:15;;;;;;;10.53;2.70;;;;;;;23.36;48.54;100888.28;1773887;79;21463;-59
2021/09/17 06:01:44;;;;;;;6.30;2.40;;;;;;;23.41;48.70;100888.25;1761454;80;21110;-58
2021/09/17 06:04:13;;;;;;;9.70;2.40;;;;;;;23.50;48.83;100884.33;1779155;79;21027;-60
2021/09/17 06:06:40;;;;;;;5.33;2.40;;;;;;;23.61;48.67;100885.63;1772749;80;21124;-59
2021/09/17 06:09:09;;;;;;;5.65;2.37;;;;;;;23.73;48.95;100889.99;1772466;79;21472;-59
2021/09/17 06:11:38;;;;;;;5.83;2.40;;;;;;;23.87;49.02;100883.80;1758505;80;21069;-59
2021/09/17 06:14:08;;;;;;;7.75;2.27;;;;;;;23.99;48.52;100879.97;1766657;79;21083;-59
2021/09/17 06:16:37;;;;;;;8.53;2.60;;;;;;;24.10;47.72;100862.59;1758768;79;21066;-59
2021/09/17 06:19:04;;;;;;;8.75;2.42;;;;;;;24.23;47.11;100870.56;1763897;80;21079;-59
2021/09/17 06:21:38;;;;;;;9.63;2.40;;;;;;;24.32;46.91;100868.33;1761485;80;21059;-56
2021/09/17 06:24:08;;;;;;;9.85;3.08;;;;;;;24.46;46.83;100862.94;1748923;80;21476;-56
2021/09/17 06:29:06;;;;;;;5.03;2.35;;;;;;;24.62;45.29;100860.16;1757467;80;21123;-57
2021/09/17 06:31:35;;;;;;;21.97;10.40;;;;;;;24.70;45.61;100848.47;1782665;78;21004;-59
2021/09/17 06:34:05;;;;;;;6.35;2.35;;;;;;;24.89;45.67;100853.98;1775978;79;21525;-59
2021/09/17 06:36:33;;;;;;;9.10;2.92;;;;;;;25.29;45.60;100858.91;1769617;79;21061;-59
2021/09/17 06:39:21;;;;;;;10.95;2.52;;;;;;;25.97;44.65;100855.56;1765677;80;21068;-60
2021/09/17 06:41:45;;;;;;;4.50;2.55;;;;;;;26.29;43.53;100852.89;1763347;80;21035;-59
2021/09/17 06:44:12;;;;;;;9.18;2.15;;;;;;;26.47;43.78;100850.69;1757516;80;21569;-59
2021/09/17 06:46:40;;;;;;;8.45;2.52;;;;;;;26.66;43.32;100852.94;1761153;79;20985;-59
2021/09/17 06:49:07;;;;;;;6.95;2.17;;;;;;;27.11;42.74;100861.61;1759182;80;21060;-59
2021/09/17 06:51:51;;;;;;;5.25;2.47;;;;;;;27.36;42.32;100859.03;1760109;80;21093;-59
2021/09/17 07:00:49;;;;;;;8.00;2.35;;;;;;;26.76;41.86;100853.70;1759198;81;21551;-59
2021/09/17 07:03:16;;;;;;;10.35;3.05;;;;;;;26.45;42.21;100854.10;1757405;80;21521;-59
2021/09/17 07:05:43;;;;;;;9.93;2.55;;;;;;;26.20;41.99;100854.33;1760977;80;20904;-59
2021/09/17 07:09:08;;;;;;;6.65;2.72;;;;;;;26.08;41.86;100852.27;1759828;80;21052;-59
2021/09/17 07:11:42;;;;;;;4.62;2.50;;;;;;;25.94;42.39;100851.75;1757157;80;21058;-61
2021/09/17 07:14:11;;;;;;;7.03;2.60;;;;;;;25.88;41.95;100849.63;1755688;79;21078;-58
2021/09/17 07:16:49;;;;;;;8.28;2.65;;;;;;;25.83;41.27;100839.09;1761416;79;21080;-59
2021/09/17 07:19:16;;;;;;;11.85;2.52;;;;;;;25.76;41.47;100860.47;1759102;79;21091;-59
2021/09/17 07:21:49;;;;;;;12.47;2.50;;;;;;;25.70;41.57;100849.05;1760186;80;21062;-59
2021/09/17 07:27:19;;;;;;;4.20;2.10;;;;;;;25.61;40.86;100852.70;1760440;80;21154;-58
2021/09/17 07:32:21;;;;;;;;;;;;;;;25.45;41.24;100859.65;1762764;81;21598;-58
2021/09/17 07:34:48;;;;;;;21.90;9.80;;;;;;;25.43;41.76;100860.31;1764777;80;20213;-58
2021/09/17 07:37:15;;;;;;;10.03;2.60;;;;;;;25.43;41.49;100864.42;1758804;81;21052;-60
2021/09/17 07:42:12;;;;;;;8.13;2.67;;;;;;;25.55;41.02;100861.55;1760130;80;21574;-60
2021/09/17 07:44:39;;;;;;;9.55;2.40;;;;;;;25.58;41.06;100847.52;1761173;80;21054;-58
2021/09/17 07:47:08;;;;;;;6.22;2.42;;;;;;;25.60;41.15;100852.35;1756083;81;21010;-57
2021/09/17 07:49:54;;;;;;;5.47;2.20;;;;;;;25.59;40.64;100839.12;1758267;79;21109;-58
2021/09/17 07:52:21;;;;;;;6.53;2.35;;;;;;;25.58;40.62;100839.28;1751827;81;21152;-58
2021/09/17 07:54:48;;;;;;;5.83;2.10;;;;;;;25.56;40.88;100837.20;1760549;80;21087;-59
2021/09/17 07:57:16;;;;;;;7.30;2.20;;;;;;;25.56;40.51;100830.34;1757433;79;21077;-56
2021/09/17 07:59:42;;;;;;;7.10;2.40;;;;;;;25.58;40.19;100836.55;1759570;81;21548;-57
2021/09/17 08:02:10;;;;;;;9.38;2.52;;;;;;;25.59;40.16;100830.03;1757188;81;21134;-58
2021/09/17 08:04:38;;;;;;;10.85;3.85;;;;;;;25.63;40.15;100830.09;1757445;80;21748;-57
2021/09/17 08:07:06;;;;;;;7.87;2.50;;;;;;;25.66;39.77;100827.03;1759106;81;21469;-57
2021/09/17 08:09:33;;;;;;;6.17;2.22;;;;;;;25.67;39.90;100826.02;1749379;80;21050;-59
2021/09/17 08:12:01;;;;;;;10.45;2.05;;;;;;;25.69;40.38;100821.23;1761292;80;21010;-56
2021/09/17 08:17:08;;;;;;;6.20;2.40;;;;;;;25.66;40.15;100829.78;1762923;81;21117;-58
2021/09/17 08:19:35;;;;;;;10.80;2.85;;;;;;;25.69;40.02;100833.59;1763141;81;21067;-56
2021/09/17 08:22:17;;;;;;;10.63;3.05;;;;;;;25.72;39.66;100831.91;1760529;81;21039;-58
2021/09/17 08:24:47;;;;;;;5.80;2.20;;;;;;;25.76;39.61;100827.52;1761506;80;21031;-57
2021/09/17 08:27:14;;;;;;;7.42;2.33;;;;;;;25.79;39.78;100821.72;1761960;81;21501;-58
2021/09/17 08:29:41;;;;;;;8.23;2.12;;;;;;;25.84;39.29;100820.75;1763267;81;21135;-58
2021/09/17 08:32:09;;;;;;;6.12;2.52;;;;;;;25.85;39.17;100821.95;1751820;80;21110;-58
2021/09/17 08:35:31;;;;;;;9.13;2.47;;;;;;;25.84;39.45;100825.71;1759756;80;21077;-58
2021/09/17 08:37:58;;;;;;;9.40;4.70;;;;;;;25.86;39.64;100815.96;1755802;81;21087;-57
2021/09/17 08:40:28;;;;;;;7.45;3.22;;;;;;;25.85;39.95;100815.08;1755808;79;21507;-58
2021/09/17 08:43:00;;;;;;;5.72;2.37;;;;;;;25.90;40.14;100822.88;1764816;79;21575;-60
2021/09/17 08:45:49;;;;;;;13.68;2.70;;;;;;;25.94;40.43;100824.29;1756517;79;21026;-59
2021/09/17 08:48:18;;;;;;;5.72;2.05;;;;;;;25.98;40.85;100820.25;1759654;80;21123;-59
2021/09/17 08:50:51;;;;;;;7.65;2.20;;;;;;;26.00;41.15;100809.97;1731481;81;21454;-58
2021/09/17 08:53:18;;;;;;;6.62;2.22;;;;;;;25.93;40.93;100803.34;1753908;81;21102;-59
2021/09/17 08:56:07;;;;;;;4.90;2.10;;;;;;;25.84;41.37;100806.49;1753055;81;21271;-59
2021/09/17 08:58:32;;;;;;;6.25;2.22;;;;;;;25.80;41.89;100802.85;1755520;79;21105;-60
2021/09/17 09:01:01;;;;;;;10.78;2.17;;;;;;;25.81;41.69;100799.09;1762642;79;21053;-60
2021/09/17 09:03:38;;;;;;;14.03;2.20;;;;;;;25.78;41.98;100809.01;1759567;79;21157;-60
2021/09/17 09:06:12;;;;;;;7.78;3.55;;;;;;;25.75;42.27;100803.30;1757477;79;21471;-60
2021/09/17 09:08:55;;;;;;;8.73;2.60;;;;;;;25.76;42.37;100800.06;1756067;79;22183;-59
2021/09/17 09:11:53;;;;;;;9.00;2.20;;;;;;;25.74;42.56;100805.16;1760461;81;20987;-60
2021/09/17 09:14:21;;;;;;;6.47;2.20;;;;;;;25.74;43.21;100798.30;1758984;80;21105;-60
2021/09/17 09:19:28;;;;;;;4.47;2.40;;;;;;;25.72;44.29;100798.12;1756716;80;21104;-58
2021/09/17 09:22:07;;;;;;;8.38;2.50;;;;;;;25.72;44.67;100792.63;1758677;80;21535;-58
2021/09/17 09:24:39;;;;;;;7.05;2.42;;;;;;;25.69;44.59;100793.78;1761203;80;21095;-57
2021/09/17 09:27:16;;;;;;;6.37;2.30;;;;;;;25.60;44.94;100785.10;1755834;80;21076;-57
2021/09/17 09:29:45;;;;;;;5.05;2.55;;;;;;;25.57;45.20;100782.14;1754549;79;21664;-57
2021/09/17 09:38:02;;;;;;;9.30;2.45;;;;;;;25.49;46.99;100781.16;1767301;80;21091;-59
2021/09/17 09:43:15;;;;;;;10.35;2.83;;;;;;;25.54;47.83;100778.85;1765419;80;21084;-59
2021/09/17 09:45:42;;;;;;;10.30;2.90;;;;;;;25.52;48.47;100785.85;1748845;81;21092;-59
2021/09/17 09:48:09;;;;;;;10.48;2.75;;;;;;;25.49;49.15;100775.67;1760386;80;21186;-59
2021/09/17 09:50:36;;;;;;;14.10;2.92;;;;;;;25.50;49.76;100776.03;1770104;79;21035;-58
2021/09/17 09:53:15;;;;;;;6.83;2.47;;;;;;;25.49;50.41;100772.93;1751966;81;21214;-58
2021/09/17 09:55:53;;;;;;;7.78;2.33;;;;;;;25.46;50.55;100769.44;1770259;80;21040;-58
2021/09/17 09:58:20;;;;;;;6.50;2.87;;;;;;;25.41;51.00;100755.31;1772916;80;21572;-60
2021/09/17 10:01:06;;;;;;;10.85;2.80;;;;;;;25.39;51.58;100761.96;1753937;80;21441;-59
2021/09/17 10:03:52;;;;;;;9.20;2.90;;;;;;;25.33;51.62;100763.45;1772339;79;21012;-58
2021/09/17 10:06:25;;;;;;;25.27;15.25;;;;;;;25.22;52.26;100759.02;1759724;79;21549;-58
2021/09/17 10:08:56;;;;;;;7.85;3.35;;;;;;;25.16;52.39;100757.73;1750914;79;21131;-59
2021/09/17 10:11:24;;;;;;;9.80;2.40;;;;;;;25.11;53.15;100757.31;1766092;79;21164;-60
2021/09/17 10:16:38;;;;;;;7.15;2.25;;;;;;;24.92;54.36;100754.63;1760298;79;21266;-58
2021/09/17 10:19:05;;;;;;;11.28;2.65;;;;;;;24.83;55.38;100750.36;1758435;80;21460;-59
2021/09/17 10:22:03;;;;;;;8.35;2.77;;;;;;;24.82;56.08;100746.41;1751750;79;21074;-59
2021/09/17 10:24:39;;;;;;;8.93;2.90;;;;;;;24.80;56.74;100738.33;1760394;80;21020;-60
2021/09/17 10:29:58;;;;;;;11.63;2.52;;;;;;;24.74;57.87;100741.63;1764591;80;21048;-59
2021/09/17 10:32:39;;;;;;;10.65;2.45;;;;;;;24.72;58.26;100727.20;1808858;79;21126;-60
2021/09/17 10:38:27;;;;;;;9.33;2.40;;;;;;;24.56;58.62;100723.19;1813956;79;21102;-60
2021/09/17 10:43:15;;;;;;;5.08;2.35;;;;;;;24.41;59.31;100731.48;1776221;80;21051;-58
2021/09/17 10:45:48;;;;;;;8.20;2.40;;;;;;;24.36;59.70;100731.06;1751015;81;21119;-58
2021/09/17 10:48:18;;;;;;;6.00;2.60;;;;;;;24.36;60.32;100720.10;1746535;80;21064;-58
2021/09/17 10:51:38;;;;;;;9.65;2.70;;;;;;;24.36;60.85;100724.21;1757861;80;21079;-59
2021/09/17 10:54:19;;;;;;;10.63;3.05;;;;;;;24.35;61.70;100715.63;1731153;80;21693;-60
2021/09/17 10:57:01;;;;;;;4.97;2.60;;;;;;;24.30;62.40;100732.00;1740948;80;21108;-58
2021/09/17 10:59:41;;;;;;;9.10;3.10;;;;;;;24.25;62.99;100725.22;1759823;80;21013;-58
2021/09/17 11:02:15;;;;;;;8.63;2.95;;;;;;;24.21;63.84;100721.05;1755701;80;21062;-58
2021/09/17 11:04:45;;;;;;;8.75;2.60;;;;;;;24.19;64.62;100704.74;1764824;79;21085;-60
2021/09/17 11:10:25;;;;;;;8.88;2.72;;;;;;;24.12;64.81;100696.75;1735448;80;21535;-59
2021/09/17 11:13:05;;;;;;;7.35;3.02;;;;;;;24.06;65.49;100689.97;1740421;79;21077;-59
2021/09/17 11:15:32;;;;;;;11.00;2.70;;;;;;;24.00;65.61;100700.98;1761854;80;21107;-60
2021/09/17 11:18:01;;;;;;;8.83;3.27;;;;;;;24.00;65.72;100686.41;1775131;80;21119;-59
2021/09/17 11:20:36;;;;;;;6.28;2.80;;;;;;;24.00;66.22;100685.92;1775671;80;21190;-59
2021/09/17 11:23:08;;;;;;;7.58;2.60;;;;;;;24.00;66.52;100683.19;1773851;78;22161;-57
2021/09/17 11:25:42;;;;;;;6.83;2.62;;;;;;;24.00;66.37;100675.46;1772785;78;21047;-59
2021/09/17 11:28:29;;;;;;;11.73;2.60;;;;;;;23.96;66.40;100673.50;1775119;78;21051;-60
2021/09/17 11:31:21;;;;;;;98.15;66.42;;;;;;;23.97;66.26;100679.34;1777480;78;21105;-58
2021/09/17 11:33:56;;;;;;;22.55;15.15;;;;;;;23.98;66.23;100666.53;1770372;78;22565;-58
2021/09/17 11:36:44;;;;;;;9.03;2.75;;;;;;;23.96;66.46;100669.39;1774421;78;21599;-56
2021/09/17 11:39:45;;;;;;;6.20;2.55;;;;;;;23.92;66.74;100662.48;1759253;79;21056;-57
2021/09/17 11:42:15;;;;;;;8.48;3.40;;;;;;;23.88;67.01;100671.99;1770134;79;21127;-57
2021/09/17 11:44:47;;;;;;;11.20;3.20;;;;;;;23.81;67.54;100667.59;1746850;80;21098;-58
2021/09/17 11:47:27;;;;;;;11.33;2.95;;;;;;;23.74;68.09;100670.55;1772137;78;21452;-57
2021/09/17 11:50:13;;;;;;;7.33;3.27;;;;;;;23.66;68.52;100660.30;1776986;78;21093;-57
2021/09/17 11:52:48;;;;;;;5.12;2.62;;;;;;;23.61;68.83;100659.87;1747707;80;21031;-58
2021/09/17 11:55:20;;;;;;;6.55;2.55;;;;;;;23.54;69.30;100650.47;1775159;80;21046;-58
2021/09/17 11:57:50;;;;;;;7.00;2.92;;;;;;;23.51;70.09;100650.77;1782774;80;21114;-59
2021/09/17 12:00:23;;;;;;;8.40;2.77;;;;;;;23.51;70.34;100643.43;1782909;80;21166;-58
2021/09/17 12:03:02;;;;;;;11.40;3.05;;;;;;;23.50;70.63;100640.83;1786765;79;21442;-56
2021/09/17 12:05:40;;;;;;;11.90;2.77;;;;;;;23.49;70.69;100645.94;1744921;80;21075;-58
2021/09/17 12:08:07;;;;;;;14.43;2.90;;;;;;;23.45;71.08;100653.06;1776729;78;21826;-57
2021/09/17 12:10:36;;;;;;;5.50;2.98;;;;;;;23.39;71.44;100638.59;1782530;79;21107;-59
2021/09/17 12:13:06;;;;;;;9.35;3.17;;;;;;;23.37;71.93;100637.86;1785678;78;21881;-59
2021/09/17 12:15:39;;;;;;;6.55;2.80;;;;;;;23.38;72.50;100639.59;1782112;79;21029;-57
2021/09/17 12:18:10;;;;;;;12.25;3.30;;;;;;;23.39;72.70;100637.22;1778060;80;21051;-57
2021/09/17 12:20:41;;;;;;;8.45;3.52;;;;;;;23.41;72.48;100627.48;1723703;80;21040;-59
2021/09/17 12:23:20;;;;;;;8.03;3.00;;;;;;;23.39;72.54;100613.97;1753701;81;21087;-60
2021/09/17 12:25:50;;;;;;;7.62;2.95;;;;;;;23.37;72.91;100628.29;1764861;79;21151;-56
2021/09/17 12:31:05;;;;;;;8.45;3.02;;;;;;;23.30;74.24;100624.36;1754706;79;21115;-58
2021/09/17 12:33:32;;;;;;;8.33;2.77;;;;;;;23.29;74.54;100630.35;1748963;79;20892;-58
2021/09/17 12:36:20;;;;;;;9.08;3.05;;;;;;;23.29;74.75;100622.64;1738596;81;21043;-57
2021/09/17 12:38:47;;;;;;;7.83;3.27;;;;;;;23.27;74.98;100617.81;1756133;79;21528;-57
2021/09/17 12:41:14;;;;;;;8.33;3.10;;;;;;;23.25;75.23;100615.69;1744865;79;21040;-58
2021/09/17 12:43:43;;;;;;;11.60;3.47;;;;;;;23.22;75.56;100614.12;1744426;79;21047;-58
2021/09/17 12:46:13;;;;;;;7.90;3.27;;;;;;;23.20;76.10;100615.25;1745220;82;21481;-58
2021/09/17 12:48:45;;;;;;;17.57;9.25;;;;;;;23.15;76.38;100610.19;1750285;80;21051;-58
2021/09/17 12:51:16;;;;;;;9.00;3.33;;;;;;;23.10;76.50;100608.39;1753530;81;21573;-56
2021/09/17 12:53:46;;;;;;;6.47;3.70;;;;;;;23.03;76.85;100604.85;1769925;79;21040;-57
2021/09/17 12:56:16;;;;;;;14.15;3.70;;;;;;;22.98;77.48;100596.70;1743975;81;21472;-57
2021/09/17 12:58:43;;;;;;;11.75;3.42;;;;;;;22.95;77.99;100594.24;1749324;80;21068;-56
2021/09/17 13:01:10;;;;;;;5.85;3.12;;;;;;;22.89;78.14;100600.63;1759771;79;21565;-57
2021/09/17 13:03:39;;;;;;;10.72;3.47;;;;;;;22.86;78.92;100600.88;1734686;81;21067;-58
2021/09/17 13:06:18;;;;;;;11.95;3.20;;;;;;;22.86;78.89;100588.58;1741063;81;21073;-58
2021/09/17 13:08:46;;;;;;;9.10;3.72;;;;;;;22.86;79.11;100584.48;1760489;81;21052;-58
2021/09/17 13:11:27;;;;;;;5.80;3.25;;;;;;;22.85;79.44;100592.32;1752335;80;21072;-58
2021/09/17 13:13:56;;;;;;;9.28;3.83;;;;;;;22.88;79.63;100586.61;1719371;82;20961;-56
2021/09/17 13:16:42;;;;;;;10.15;3.20;;;;;;;22.89;79.97;100586.97;1757010;81;21104;-57
2021/09/17 13:19:09;;;;;;;16.10;3.60;;;;;;;22.92;80.11;100584.95;1720654;80;21718;-58
2021/09/17 13:21:36;;;;;;;10.50;3.70;;;;;;;22.91;80.46;100576.40;1737446;81;21141;-58
2021/09/17 13:24:05;;;;;;;10.60;3.40;;;;;;;22.91;80.49;100575.03;1760355;80;21056;-60
2021/09/17 13:26:33;;;;;;;8.58;3.45;;;;;;;22.88;80.80;100564.73;1754813;81;21529;-58
2021/09/17 13:29:03;;;;;;;8.03;3.50;;;;;;;22.91;80.91;100570.41;1741640;81;21962;-59
2021/09/17 13:39:22;;;;;;;10.72;3.80;;;;;;;22.92;81.41;100566.67;1766154;79;21071;-59
2021/09/17 13:41:51;;;;;;;7.65;3.25;;;;;;;22.92;81.56;100564.45;1752255;81;22024;-58
2021/09/17 13:44:18;;;;;;;6.17;3.20;;;;;;;22.93;81.75;100562.09;1767478;80;21000;-60
2021/09/17 13:49:19;;;;;;;7.73;3.80;;;;;;;22.86;82.22;100558.52;1738416;81;21015;-58
2021/09/17 13:51:53;;;;;;;10.98;3.35;;;;;;;22.84;82.48;100556.43;1740713;80;21032;-58
2021/09/17 13:59:37;;;;;;;7.92;3.72;;;;;;;22.83;83.03;100549.23;1739409;80;21078;-57
2021/09/17 14:02:35;;;;;;;8.55;3.90;;;;;;;22.81;83.38;100550.40;1739734;81;21093;-57
2021/09/17 14:05:06;;;;;;;11.05;3.83;;;;;;;22.79;83.83;100534.12;1739996;82;21110;-56
2021/09/17 14:07:40;;;;;;;38.88;22.62;;;;;;;22.76;83.86;100527.58;1736720;80;21067;-56
2021/09/17 14:10:18;;;;;;;7.30;4.37;;;;;;;22.73;83.88;100530.59;1738666;80;22522;-58
2021/09/17 14:12:45;;;;;;;12.13;5.47;;;;;;;22.71;84.03;100527.13;1733748;82;21962;-56
2021/09/17 14:17:51;;;;;;;11.93;3.60;;;;;;;22.67;84.38;100533.37;1741010;81;21042;-56